Time;durP1;ratioP1;P1;durP2;ratioP2;P2;SDS_P1;SDS_P2;PMS_P1;PMS_P2;Temp;Humidity;BMP_temperature;BMP_pressure;BME280_temperature;BME280_humidity;BME280_pressure;Samples;Min_cycle;Max_cycle;Signal;HPM_P1;HPM_P2
2023/11/26 00:00:06;;;;;;;6.00;5.10;;;;;;;0.17;100.00;97451.10;109622;1251;71981;-64
2023/11/26 00:02:33;;;;;;;5.70;5.20;;;;;;;0.18;100.00;97454.48;109586;1249;60036;-65
2023/11/26 00:05:00;;;;;;;5.70;5.10;;;;;;;0.19;100.00;97455.73;109609;1251;60083;-64
2023/11/26 00:07:27;;;;;;;5.90;5.30;;;;;;;0.20;100.00;97452.31;109556;1251;75286;-65
2023/11/26 00:09:53;;;;;;;6.50;5.90;;;;;;;0.22;100.00;97452.83;109700;1249;68021;-66
2023/11/26 00:12:20;;;;;;;6.80;6.20;;;;;;;0.20;100.00;97447.49;109684;1250;72526;-65
2023/11/26 00:14:47;;;;;;;7.30;6.60;;;;;;;0.17;100.00;97448.30;109617;1254;59766;-64
2023/11/26 00:17:14;;;;;;;5.90;5.30;;;;;;;0.16;100.00;97452.24;109667;1251;59751;-65
2023/11/26 00:19:40;;;;;;;8.20;6.60;;;;;;;0.16;100.00;97450.32;109648;1251;75478;-66
2023/11/26 00:22:07;;;;;;;6.80;6.00;;;;;;;0.17;100.00;97451.95;109637;1251;67141;-64
2023/11/26 00:24:33;;;;;;;6.50;5.70;;;;;;;0.18;100.00;97446.47;109634;1251;59792;-66
2023/11/26 00:27:00;;;;;;;6.10;5.50;;;;;;;0.20;100.00;97443.64;109657;1251;59673;-66
2023/11/26 00:29:26;;;;;;;5.50;5.00;;;;;;;0.21;100.00;97451.05;109651;1250;59746;-65
2023/11/26 00:31:53;;;;;;;6.20;5.40;;;;;;;0.20;100.00;97452.88;109620;1251;73945;-66
2023/11/26 00:34:21;;;;;;;6.10;5.50;;;;;;;0.19;100.00;97447.91;109616;1251;67751;-66
2023/11/26 00:36:48;;;;;;;6.20;5.60;;;;;;;0.18;100.00;97444.71;109536;1251;72496;-64
2023/11/26 00:39:16;;;;;;;5.20;4.60;;;;;;;0.18;100.00;97437.72;109592;1251;59824;-64
2023/11/26 00:41:46;;;;;;;5.60;5.10;;;;;;;0.21;100.00;97441.27;109639;1251;60327;-64
2023/11/26 00:44:12;;;;;;;4.60;4.10;;;;;;;0.21;100.00;97438.62;109670;1251;75283;-66
2023/11/26 00:46:39;;;;;;;6.50;5.30;;;;;;;0.20;100.00;97436.86;109630;1251;66488;-65
2023/11/26 00:49:06;;;;;;;6.60;5.70;;;;;;;0.17;100.00;97439.24;109549;1251;72466;-65
2023/11/26 00:51:33;;;;;;;6.30;5.70;;;;;;;0.16;100.00;97438.26;109598;1250;59836;-66
2023/11/26 00:54:00;;;;;;;7.40;6.50;;;;;;;0.16;100.00;97441.64;109619;1251;59743;-66
2023/11/26 00:56:26;;;;;;;6.00;5.50;;;;;;;0.15;100.00;97434.73;109586;1251;75518;-63
2023/11/26 00:58:54;;;;;;;6.50;5.90;;;;;;;0.16;100.00;97437.22;109632;1250;66476;-65
2023/11/26 01:01:21;;;;;;;7.20;6.00;;;;;;;0.17;100.00;97435.55;109619;1251;72439;-63
2023/11/26 01:03:47;;;;;;;7.60;5.20;;;;;;;0.17;100.00;97431.34;109587;1251;59870;-64
2023/11/26 01:06:15;;;;;;;5.70;5.10;;;;;;;0.18;100.00;97433.59;109595;1251;60479;-63
2023/11/26 01:08:41;;;;;;;5.70;5.20;;;;;;;0.18;100.00;97436.35;109669;1251;75116;-63
2023/11/26 01:11:12;;;;;;;6.10;5.60;;;;;;;0.16;100.00;97434.46;109604;1251;61199;-63
2023/11/26 01:13:39;;;;;;;6.10;5.50;;;;;;;0.13;100.00;97438.10;109668;1251;71199;-64
2023/11/26 01:16:07;;;;;;;5.40;4.90;;;;;;;0.12;100.00;97443.98;109643;1251;60302;-62
2023/11/26 01:18:33;;;;;;;5.90;5.30;;;;;;;0.10;100.00;97447.49;109604;1251;60180;-64
2023/11/26 01:21:00;;;;;;;6.30;4.80;;;;;;;0.06;100.00;97446.98;109617;1250;74035;-65
2023/11/26 01:23:27;;;;;;;5.40;4.90;;;;;;;0.05;100.00;97447.42;109640;1251;59794;-64
2023/11/26 01:25:54;;;;;;;5.60;5.00;;;;;;;0.05;100.00;97444.85;109637;1250;72749;-64
2023/11/26 01:28:21;;;;;;;7.50;5.20;;;;;;;0.03;100.00;97445.76;109581;1250;59726;-67
2023/11/26 01:30:48;;;;;;;6.00;5.40;;;;;;;0.04;100.00;97444.95;109698;1251;59674;-65
2023/11/26 01:33:16;;;;;;;6.50;5.10;;;;;;;0.03;100.00;97445.18;109610;1251;60161;-65
2023/11/26 01:35:43;;;;;;;5.50;5.00;;;;;;;0.02;100.00;97437.48;109642;1251;66463;-63
2023/11/26 01:38:09;;;;;;;4.90;4.50;;;;;;;0.03;100.00;97432.54;109640;1251;72614;-64
2023/11/26 01:40:37;;;;;;;6.50;5.30;;;;;;;0.04;100.00;97429.81;109602;1251;60008;-65
2023/11/26 01:43:04;;;;;;;5.50;4.90;;;;;;;0.04;100.00;97436.20;109657;1250;60051;-65
2023/11/26 01:45:30;;;;;;;5.30;4.70;;;;;;;0.05;100.00;97436.66;109659;1250;74016;-65
2023/11/26 01:48:00;;;;;;;5.50;5.00;;;;;;;0.06;100.00;97438.59;109619;1251;67729;-66
2023/11/26 01:50:27;;;;;;;5.30;4.80;;;;;;;0.08;100.00;97435.10;109533;1251;73198;-65
2023/11/26 01:52:54;;;;;;;8.90;4.50;;;;;;;0.09;100.00;97430.83;109614;1251;59699;-66
2023/11/26 01:55:21;;;;;;;5.60;4.70;;;;;;;0.09;100.00;97429.25;109650;1251;60355;-63
2023/11/26 01:57:47;;;;;;;5.00;4.10;;;;;;;0.09;100.00;97427.86;109655;1251;75288;-63
2023/11/26 02:00:16;;;;;;;5.00;4.50;;;;;;;0.08;100.00;97422.19;109557;1251;67838;-64
2023/11/26 02:02:43;;;;;;;6.20;4.70;;;;;;;0.10;100.00;97421.88;109526;1251;71617;-63
2023/11/26 02:05:11;;;;;;;5.10;4.70;;;;;;;0.07;100.00;97422.48;109639;1251;59809;-65
2023/11/26 02:07:39;;;;;;;7.10;5.30;;;;;;;0.06;100.00;97422.92;109593;1251;60176;-64
2023/11/26 02:10:07;;;;;;;5.30;4.80;;;;;;;0.05;100.00;97430.90;109507;1250;74310;-65
2023/11/26 02:12:34;;;;;;;6.10;5.50;;;;;;;0.03;100.00;97429.36;109634;1251;67916;-64
2023/11/26 02:15:01;;;;;;;6.60;5.00;;;;;;;0.01;100.00;97431.08;109530;1251;72443;-64
2023/11/26 02:17:28;;;;;;;6.80;5.00;;;;;;;0.01;100.00;97430.02;109533;1251;60048;-64
2023/11/26 02:19:55;;;;;;;6.10;5.40;;;;;;;0.01;100.00;97432.27;109621;1251;60482;-66
2023/11/26 02:22:22;;;;;;;4.90;4.50;;;;;;;0.02;100.00;97430.48;109404;1251;75369;-65
2023/11/26 02:24:49;;;;;;;6.80;5.20;;;;;;;0.01;100.00;97430.73;109555;1250;67861;-64
2023/11/26 02:27:16;;;;;;;6.10;5.10;;;;;;;0.00;100.00;97429.56;109648;1251;72510;-65
2023/11/26 02:29:42;;;;;;;6.00;5.50;;;;;;;0.01;100.00;97428.29;109627;1251;59719;-62
2023/11/26 02:32:09;;;;;;;6.30;5.70;;;;;;;0.01;100.00;97433.71;109619;1251;59654;-63
2023/11/26 02:34:36;;;;;;;6.40;5.50;;;;;;;0.01;100.00;97431.92;109615;1251;75459;-64
2023/11/26 02:37:03;;;;;;;5.50;5.00;;;;;;;0.01;100.00;97423.23;109649;1254;67069;-64
2023/11/26 02:39:29;;;;;;;5.10;4.00;;;;;;;0.02;100.00;97426.31;109632;1250;71231;-64
2023/11/26 02:41:58;;;;;;;4.90;4.20;;;;;;;0.02;100.00;97423.53;109597;1251;59922;-64
2023/11/26 02:44:24;;;;;;;4.60;4.20;;;;;;;0.04;100.00;97418.80;109655;1250;59811;-63
2023/11/26 02:46:51;;;;;;;3.90;3.50;;;;;;;0.07;100.00;97416.08;109559;1252;75642;-64
2023/11/26 02:49:19;;;;;;;5.10;4.00;;;;;;;0.09;100.00;97416.55;109610;1251;67014;-63
2023/11/26 02:51:45;;;;;;;4.10;3.40;;;;;;;0.10;100.00;97415.24;109636;1251;71301;-63
2023/11/26 02:54:13;;;;;;;4.60;3.90;;;;;;;0.08;100.00;97417.55;109527;1251;60152;-65
2023/11/26 02:56:43;;;;;;;9.70;4.60;;;;;;;0.04;100.00;97413.02;109592;1250;60231;-65
2023/11/26 02:59:10;;;;;;;9.40;4.00;;;;;;;0.02;100.00;97415.16;109604;1251;75471;-65
2023/11/26 03:01:38;;;;;;;6.20;4.10;;;;;;;-0.00;100.00;97410.30;109611;1251;67713;-64
2023/11/26 03:04:06;;;;;;;3.90;3.50;;;;;;;0.00;100.00;97409.50;109540;1251;72716;-65
2023/11/26 03:06:35;;;;;;;4.80;3.60;;;;;;;0.01;100.00;97414.17;109639;1250;60937;-65
2023/11/26 03:09:10;;;;;;;5.40;3.80;;;;;;;0.02;100.00;97418.30;109646;1250;60167;-65
2023/11/26 03:14:22;;;;;;;4.60;4.20;;;;;;;0.05;100.00;97414.36;109567;1250;67904;-64
2023/11/26 03:16:49;;;;;;;4.20;3.80;;;;;;;0.05;100.00;97415.72;109626;1250;72531;-64
2023/11/26 03:19:15;;;;;;;6.00;4.10;;;;;;;0.06;100.00;97414.27;109520;1251;59708;-64
2023/11/26 03:21:44;;;;;;;4.70;4.10;;;;;;;0.06;100.00;97412.86;109640;1251;59749;-64
2023/11/26 03:24:14;;;;;;;5.20;4.70;;;;;;;0.05;100.00;97412.08;109547;1255;75366;-65
2023/11/26 03:26:41;;;;;;;5.10;4.40;;;;;;;0.06;100.00;97410.77;109564;1251;67754;-66
2023/11/26 03:29:07;;;;;;;5.60;4.70;;;;;;;0.07;100.00;97416.77;109585;1255;72493;-65
2023/11/26 03:31:34;;;;;;;4.80;4.20;;;;;;;0.09;100.00;97418.95;109598;1251;59782;-66
2023/11/26 03:34:08;;;;;;;5.00;3.90;;;;;;;0.11;100.00;97421.88;109680;1250;60020;-64
2023/11/26 03:36:38;;;;;;;5.30;4.80;;;;;;;0.13;100.00;97421.17;109619;1250;73911;-65
2023/11/26 03:39:04;;;;;;;5.40;4.90;;;;;;;0.15;100.00;97422.87;109566;1251;68963;-65
2023/11/26 03:41:33;;;;;;;5.50;4.40;;;;;;;0.16;100.00;97418.23;109645;1251;72570;-64
2023/11/26 03:43:59;;;;;;;5.50;4.60;;;;;;;0.17;100.00;97410.45;109597;1251;59789;-64
2023/11/26 03:46:26;;;;;;;6.60;5.50;;;;;;;0.18;100.00;97407.78;109593;1251;59654;-65
2023/11/26 03:48:53;;;;;;;6.50;5.00;;;;;;;0.19;100.00;97409.20;109622;1251;75183;-65
2023/11/26 03:51:23;;;;;;;6.30;4.90;;;;;;;0.19;100.00;97408.36;109517;1251;67603;-66
2023/11/26 03:53:49;;;;;;;5.50;4.70;;;;;;;0.20;100.00;97409.67;109646;1250;71257;-66
2023/11/26 03:56:16;;;;;;;6.40;5.40;;;;;;;0.21;100.00;97416.52;109609;1251;59727;-64
2023/11/26 03:58:42;;;;;;;5.60;5.00;;;;;;;0.22;100.00;97412.37;109603;1251;60250;-65
2023/11/26 04:01:09;;;;;;;5.80;5.30;;;;;;;0.23;100.00;97415.09;109656;1250;75345;-66
2023/11/26 04:03:36;;;;;;;5.90;5.40;;;;;;;0.24;100.00;97426.87;109649;1250;67754;-65
2023/11/26 04:06:06;;;;;;;6.20;5.60;;;;;;;0.22;100.00;97426.17;109515;1252;71500;-65
2023/11/26 04:08:33;;;;;;;6.10;5.60;;;;;;;0.20;100.00;97427.23;109640;1251;59804;-65
2023/11/26 04:10:59;;;;;;;7.00;6.30;;;;;;;0.18;100.00;97430.55;109614;1251;60143;-65
2023/11/26 04:13:29;;;;;;;8.40;6.30;;;;;;;0.17;100.00;97435.36;109700;1251;75265;-67
2023/11/26 04:15:57;;;;;;;6.70;6.00;;;;;;;0.17;100.00;97434.57;109702;1251;68454;-67
2023/11/26 04:18:24;;;;;;;6.40;5.70;;;;;;;0.19;100.00;97439.77;109702;1251;71221;-64
2023/11/26 04:20:51;;;;;;;9.30;6.20;;;;;;;0.21;100.00;97436.95;109607;1250;61053;-65
2023/11/26 04:23:18;;;;;;;6.60;6.00;;;;;;;0.23;100.00;97440.67;109621;1251;60049;-65
2023/11/26 04:25:45;;;;;;;6.10;5.50;;;;;;;0.25;100.00;97443.09;109666;1251;73855;-66
2023/11/26 04:28:12;;;;;;;7.00;6.30;;;;;;;0.27;100.00;97441.70;109607;1251;66467;-63
2023/11/26 04:30:39;;;;;;;6.50;5.90;;;;;;;0.27;100.00;97443.94;109567;1251;72677;-65
2023/11/26 04:33:07;;;;;;;8.50;6.50;;;;;;;0.27;100.00;97444.10;109697;1251;59740;-64
2023/11/26 04:35:34;;;;;;;8.60;6.60;;;;;;;0.26;100.00;97447.53;109619;1251;59777;-66
2023/11/26 04:38:00;;;;;;;7.00;6.10;;;;;;;0.23;100.00;97449.91;109680;1251;75581;-65
2023/11/26 04:40:28;;;;;;;7.80;6.90;;;;;;;0.22;100.00;97457.52;109644;1251;67886;-64
2023/11/26 04:42:55;;;;;;;8.50;6.70;;;;;;;0.24;100.00;97457.89;109617;1251;72666;-65
2023/11/26 04:45:22;;;;;;;7.10;6.50;;;;;;;0.27;100.00;97456.98;109580;1251;59958;-64
2023/11/26 04:47:48;;;;;;;7.50;6.70;;;;;;;0.29;100.00;97454.01;109588;1250;60837;-65
2023/11/26 04:50:15;;;;;;;8.00;6.20;;;;;;;0.28;100.00;97461.83;109599;1251;75458;-64
2023/11/26 04:52:42;;;;;;;8.10;7.00;;;;;;;0.25;100.00;97461.98;109608;1255;67817;-64
2023/11/26 04:55:09;;;;;;;7.50;6.80;;;;;;;0.24;100.00;97458.23;109611;1251;59731;-66
2023/11/26 04:57:35;;;;;;;9.00;7.40;;;;;;;0.22;100.00;97458.30;109648;1252;60068;-65
2023/11/26 05:00:03;;;;;;;7.80;7.00;;;;;;;0.21;100.00;97450.83;109615;1251;59704;-65
2023/11/26 05:02:32;;;;;;;7.50;6.60;;;;;;;0.20;100.00;97456.01;109565;1251;74921;-64
2023/11/26 05:05:00;;;;;;;8.50;6.80;;;;;;;0.20;100.00;97455.13;109668;1251;66426;-63
2023/11/26 05:07:27;;;;;;;8.60;7.60;;;;;;;0.20;100.00;97453.55;109519;1254;72521;-66
2023/11/26 05:09:53;;;;;;;7.90;7.10;;;;;;;0.23;100.00;97456.80;109648;1250;59880;-66
2023/11/26 05:12:20;;;;;;;8.80;7.90;;;;;;;0.23;100.00;97461.98;109605;1251;61047;-65
2023/11/26 05:14:47;;;;;;;8.00;7.20;;;;;;;0.21;100.00;97469.18;109644;1251;75136;-65
2023/11/26 05:17:13;;;;;;;8.90;7.40;;;;;;;0.18;100.00;97469.10;109579;1251;60125;-65
2023/11/26 05:19:39;;;;;;;9.20;7.80;;;;;;;0.16;100.00;97471.23;109640;1255;71944;-65
2023/11/26 05:22:08;;;;;;;7.20;6.50;;;;;;;0.13;100.00;97469.58;109555;1251;61152;-66
2023/11/26 05:24:34;;;;;;;8.00;7.20;;;;;;;0.13;100.00;97470.17;109636;1251;60213;-66
2023/11/26 05:27:01;;;;;;;6.90;6.20;;;;;;;0.13;100.00;97472.75;109604;1254;75255;-65
2023/11/26 05:29:31;;;;;;;7.60;5.70;;;;;;;0.13;100.00;97470.79;109670;1251;66802;-65
2023/11/26 05:31:57;;;;;;;7.30;6.20;;;;;;;0.14;100.00;97468.42;109612;1251;71204;-66
2023/11/26 05:34:24;;;;;;;7.00;6.30;;;;;;;0.12;100.00;97473.95;109594;1251;59797;-67
2023/11/26 05:36:51;;;;;;;7.30;6.60;;;;;;;0.10;100.00;97474.23;109663;1251;59712;-65
2023/11/26 05:39:17;;;;;;;7.80;6.50;;;;;;;0.07;100.00;97471.45;109599;1254;75287;-66
2023/11/26 05:41:44;;;;;;;7.00;6.30;;;;;;;0.07;100.00;97470.23;109610;1254;66344;-65
2023/11/26 05:44:10;;;;;;;7.40;6.70;;;;;;;0.08;100.00;97470.38;109624;1251;59789;-66
2023/11/26 05:46:40;;;;;;;8.40;7.00;;;;;;;0.07;100.00;97471.86;109636;1251;59729;-66
2023/11/26 05:49:08;;;;;;;7.50;6.50;;;;;;;0.06;100.00;97472.81;109634;1251;59669;-65
2023/11/26 05:51:34;;;;;;;6.50;5.80;;;;;;;0.07;100.00;97474.45;109668;1251;75361;-66
2023/11/26 05:54:01;;;;;;;7.40;6.70;;;;;;;0.08;100.00;97464.36;109617;1254;66844;-66
2023/11/26 05:56:27;;;;;;;6.90;6.10;;;;;;;0.12;100.00;97466.95;109595;1251;71758;-66
2023/11/26 05:58:55;;;;;;;8.80;6.80;;;;;;;0.13;100.00;97467.92;109572;1253;60399;-66
2023/11/26 06:01:23;;;;;;;8.00;6.50;;;;;;;0.13;100.00;97468.77;109667;1251;59620;-66
2023/11/26 06:03:50;;;;;;;7.70;6.90;;;;;;;0.12;100.00;97470.39;109643;1251;73944;-65
2023/11/26 06:06:16;;;;;;;7.50;6.70;;;;;;;0.13;100.00;97468.38;109645;1251;68001;-66
2023/11/26 06:08:43;;;;;;;9.10;6.80;;;;;;;0.15;100.00;97464.76;109645;1251;71257;-65
2023/11/26 06:11:10;;;;;;;10.20;7.30;;;;;;;0.16;100.00;97464.60;109554;1251;59759;-65
2023/11/26 06:13:36;;;;;;;10.80;7.80;;;;;;;0.17;100.00;97466.23;109611;1251;59848;-65
2023/11/26 06:16:03;;;;;;;8.80;7.20;;;;;;;0.19;100.00;97463.27;109510;1256;75259;-66
2023/11/26 06:18:30;;;;;;;10.50;8.70;;;;;;;0.20;100.00;97462.48;109667;1251;66412;-66
2023/11/26 06:20:57;;;;;;;8.20;7.40;;;;;;;0.22;100.00;97465.42;109525;1254;60076;-66
2023/11/26 06:23:24;;;;;;;9.70;7.80;;;;;;;0.23;100.00;97465.95;109655;1251;59836;-67
2023/11/26 06:25:50;;;;;;;10.80;8.30;;;;;;;0.24;100.00;97468.63;109697;1251;59802;-64
2023/11/26 06:28:17;;;;;;;12.80;8.70;;;;;;;0.23;100.00;97474.53;109688;1251;75640;-63
2023/11/26 06:30:44;;;;;;;9.20;7.70;;;;;;;0.24;100.00;97471.83;109672;1251;66449;-64
2023/11/26 06:33:10;;;;;;;12.00;8.30;;;;;;;0.25;100.00;97469.47;109643;1251;72407;-74
2023/11/26 06:35:37;;;;;;;14.50;10.00;;;;;;;0.27;100.00;97470.98;109560;1252;59739;-64
2023/11/26 06:38:05;;;;;;;11.30;9.60;;;;;;;0.29;100.00;97472.88;109645;1251;60047;-64
2023/11/26 06:40:31;;;;;;;17.10;9.70;;;;;;;0.30;100.00;97473.42;109679;1251;73662;-64
2023/11/26 06:42:58;;;;;;;11.60;8.70;;;;;;;0.34;100.00;97477.23;109687;1251;59792;-65
2023/11/26 06:45:25;;;;;;;10.40;8.50;;;;;;;0.37;100.00;97479.87;109673;1251;71335;-66
2023/11/26 06:47:53;;;;;;;10.80;9.20;;;;;;;0.40;100.00;97476.48;109625;1251;61226;-64
2023/11/26 06:50:20;;;;;;;8.90;7.90;;;;;;;0.40;100.00;97472.04;109571;1251;60220;-69
2023/11/26 06:52:47;;;;;;;11.50;7.50;;;;;;;0.42;100.00;97471.39;109644;1251;76183;-66
2023/11/26 06:55:14;;;;;;;8.60;7.80;;;;;;;0.43;100.00;97479.73;109556;1251;67588;-62
2023/11/26 06:57:40;;;;;;;9.80;7.20;;;;;;;0.44;100.00;97474.77;109599;1251;70435;-65
2023/11/26 07:00:09;;;;;;;9.60;7.60;;;;;;;0.46;100.00;97478.97;109577;1251;60181;-71
2023/11/26 07:02:35;;;;;;;7.60;6.80;;;;;;;0.46;100.00;97479.98;109675;1251;59741;-68
2023/11/26 07:05:03;;;;;;;9.60;7.60;;;;;;;0.47;100.00;97480.06;109559;1251;60228;-68
2023/11/26 07:07:30;;;;;;;8.50;7.10;;;;;;;0.48;100.00;97475.24;109637;1251;67613;-68
2023/11/26 07:09:57;;;;;;;8.80;7.90;;;;;;;0.51;100.00;97473.77;109569;1251;72487;-67
2023/11/26 07:12:24;;;;;;;8.80;7.90;;;;;;;0.54;100.00;97471.91;109599;1250;59699;-74
2023/11/26 07:14:50;;;;;;;8.00;7.20;;;;;;;0.55;100.00;97475.09;109620;1251;60152;-71
2023/11/26 07:17:17;;;;;;;9.30;8.00;;;;;;;0.56;100.00;97475.13;109528;1251;73978;-73
2023/11/26 07:19:44;;;;;;;10.00;7.80;;;;;;;0.60;100.00;97472.48;109473;1251;66434;-66
2023/11/26 07:22:11;;;;;;;9.40;8.40;;;;;;;0.63;100.00;97472.33;109504;1251;71245;-67
2023/11/26 07:24:39;;;;;;;8.30;7.50;;;;;;;0.66;100.00;97462.97;109466;1251;59750;-69
2023/11/26 07:27:06;;;;;;;7.80;7.10;;;;;;;0.68;100.00;97466.05;109504;1253;60068;-73
2023/11/26 07:29:34;;;;;;;9.40;7.60;;;;;;;0.70;100.00;97465.88;109506;1251;74902;-68
2023/11/26 07:32:00;;;;;;;8.90;7.80;;;;;;;0.72;100.00;97460.45;109580;1250;68000;-73
2023/11/26 07:34:27;;;;;;;10.80;8.70;;;;;;;0.72;100.00;97456.36;109541;1251;72754;-73
2023/11/26 07:36:53;;;;;;;9.80;8.40;;;;;;;0.73;100.00;97456.45;109516;1251;59970;-74
2023/11/26 07:39:20;;;;;;;8.60;7.60;;;;;;;0.76;100.00;97453.91;109536;1251;59684;-75
2023/11/26 07:41:47;;;;;;;9.20;7.80;;;;;;;0.80;100.00;97455.17;109423;1251;75457;-74
2023/11/26 07:44:14;;;;;;;7.90;7.00;;;;;;;0.84;100.00;97454.09;109558;1251;66396;-72
2023/11/26 07:46:41;;;;;;;10.30;7.60;;;;;;;0.88;100.00;97446.73;109537;1251;72955;-74
2023/11/26 07:49:08;;;;;;;7.40;6.70;;;;;;;0.90;100.00;97440.03;109480;1251;60009;-71
2023/11/26 07:51:37;;;;;;;8.40;7.30;;;;;;;0.91;100.00;97434.66;109589;1251;59715;-73
2023/11/26 07:54:04;;;;;;;8.10;7.30;;;;;;;0.93;100.00;97435.34;109702;1250;74260;-69
2023/11/26 07:56:34;;;;;;;8.80;8.00;;;;;;;0.97;100.00;97433.84;109615;1251;66756;-69
2023/11/26 07:59:06;;;;;;;8.00;7.10;;;;;;;1.04;100.00;97430.15;109625;1250;71083;-77
2023/11/26 08:01:33;;;;;;;9.40;6.50;;;;;;;1.12;100.00;97431.38;109639;1251;61021;-66
2023/11/26 08:03:59;;;;;;;7.90;7.00;;;;;;;1.20;100.00;97436.46;109629;1251;60174;-70
2023/11/26 08:06:26;;;;;;;6.80;5.80;;;;;;;1.27;100.00;97435.41;109575;1251;75259;-71
2023/11/26 08:08:53;;;;;;;8.30;6.80;;;;;;;1.34;100.00;97439.96;109616;1250;67683;-71
2023/11/26 08:11:21;;;;;;;7.20;6.50;;;;;;;1.40;100.00;97440.36;109558;1251;72690;-73
2023/11/26 08:13:47;;;;;;;8.20;6.70;;;;;;;1.45;100.00;97447.84;109558;1250;59712;-69
2023/11/26 08:16:17;;;;;;;7.80;6.30;;;;;;;1.47;100.00;97446.53;109635;1251;60118;-69
2023/11/26 08:18:44;;;;;;;9.10;7.10;;;;;;;1.49;100.00;97443.52;109571;1250;75290;-69
2023/11/26 08:21:10;;;;;;;11.60;7.10;;;;;;;1.47;100.00;97448.95;109610;1251;67747;-69
2023/11/26 08:23:50;;;;;;;8.00;7.10;;;;;;;1.48;100.00;97452.73;109637;1250;72660;-68
2023/11/26 08:26:16;;;;;;;7.70;6.70;;;;;;;1.51;100.00;97452.95;109601;1251;60849;-70
2023/11/26 08:28:43;;;;;;;7.00;6.30;;;;;;;1.55;100.00;97450.48;109649;1251;60135;-69
2023/11/26 08:31:10;;;;;;;6.30;5.70;;;;;;;1.58;100.00;97445.36;109582;1251;75423;-69
2023/11/26 08:33:42;;;;;;;6.60;5.60;;;;;;;1.60;100.00;97451.58;109692;1251;68155;-74
2023/11/26 08:36:10;;;;;;;5.70;5.20;;;;;;;1.61;100.00;97443.17;109619;1254;72836;-77
2023/11/26 08:38:41;;;;;;;5.50;5.00;;;;;;;1.60;100.00;97449.16;109510;1250;59841;-74
2023/11/26 08:41:11;;;;;;;5.80;5.30;;;;;;;1.59;100.00;97446.96;109670;1251;59918;-70
2023/11/26 08:43:41;;;;;;;6.20;5.60;;;;;;;1.57;100.00;97449.85;109612;1250;75290;-67
2023/11/26 08:46:09;;;;;;;6.60;5.90;;;;;;;1.54;100.00;97453.17;109632;1251;67818;-74
2023/11/26 08:48:37;;;;;;;6.70;6.00;;;;;;;1.53;100.00;97455.54;109610;1250;71183;-72
2023/11/26 08:51:04;;;;;;;6.30;5.60;;;;;;;1.52;100.00;97454.75;109622;1251;60015;-73
2023/11/26 08:53:32;;;;;;;6.30;5.70;;;;;;;1.51;100.00;97446.27;109621;1250;60245;-73
2023/11/26 08:56:00;;;;;;;6.10;5.50;;;;;;;1.49;100.00;97451.73;109528;1251;75402;-74
2023/11/26 08:58:27;;;;;;;5.50;5.00;;;;;;;1.45;100.00;97452.71;109615;1250;67755;-71
2023/11/26 09:00:55;;;;;;;5.40;4.90;;;;;;;1.41;100.00;97448.98;109522;1251;71558;-73
2023/11/26 09:03:22;;;;;;;6.30;5.40;;;;;;;1.35;100.00;97444.71;109337;1251;60976;-62
2023/11/26 09:05:49;;;;;;;6.00;5.10;;;;;;;1.27;100.00;97449.52;109638;1250;59688;-68
2023/11/26 09:08:19;;;;;;;5.50;5.00;;;;;;;1.23;100.00;97445.25;109500;1251;74153;-62
2023/11/26 09:10:46;;;;;;;6.30;5.80;;;;;;;1.20;100.00;97441.90;109536;1250;66494;-71
2023/11/26 09:13:12;;;;;;;5.40;4.90;;;;;;;1.19;100.00;97444.30;109598;1251;71565;-68
2023/11/26 09:15:41;;;;;;;6.40;5.70;;;;;;;1.18;100.00;97442.13;109602;1250;59784;-69
2023/11/26 09:18:08;;;;;;;5.70;5.20;;;;;;;1.15;100.00;97440.29;109590;1250;59806;-70
2023/11/26 09:20:36;;;;;;;5.20;4.70;;;;;;;1.13;100.00;97440.58;109581;1250;74439;-68
2023/11/26 09:23:03;;;;;;;5.40;4.90;;;;;;;1.12;100.00;97433.99;109628;1250;67799;-69
2023/11/26 09:25:30;;;;;;;7.30;6.60;;;;;;;1.13;100.00;97428.49;109500;1251;72463;-69
2023/11/26 09:27:57;;;;;;;7.30;6.60;;;;;;;1.12;100.00;97423.13;109396;1251;59902;-67
2023/11/26 09:30:23;;;;;;;6.10;5.60;;;;;;;1.14;100.00;97421.80;109636;1250;59743;-67
2023/11/26 09:32:50;;;;;;;7.00;6.30;;;;;;;1.14;100.00;97425.23;109605;1250;75885;-67
2023/11/26 09:35:17;;;;;;;5.40;5.00;;;;;;;1.15;100.00;97423.95;109642;1250;66593;-68
2023/11/26 09:37:43;;;;;;;6.00;5.40;;;;;;;1.15;100.00;97420.76;109619;1250;59848;-67
2023/11/26 09:40:11;;;;;;;6.40;5.80;;;;;;;1.16;100.00;97423.83;109608;1251;59773;-67
2023/11/26 09:42:37;;;;;;;4.70;4.30;;;;;;;1.17;100.00;97421.23;109567;1251;59792;-68
2023/11/26 09:45:04;;;;;;;5.10;4.60;;;;;;;1.20;100.00;97424.27;109382;1251;75332;-66
2023/11/26 09:47:32;;;;;;;6.00;4.30;;;;;;;1.25;100.00;97423.23;109613;1250;67092;-72
2023/11/26 09:49:59;;;;;;;7.00;4.80;;;;;;;1.27;100.00;97423.16;109629;1250;72457;-67
2023/11/26 09:52:26;;;;;;;4.90;4.20;;;;;;;1.32;100.00;97425.98;109632;1251;59821;-63
2023/11/26 09:54:55;;;;;;;4.50;4.10;;;;;;;1.38;100.00;97421.20;109464;1250;211292;-68
2023/11/26 09:57:22;;;;;;;6.80;5.40;;;;;;;1.43;100.00;97415.52;109475;1251;74073;-68
2023/11/26 09:59:49;;;;;;;6.20;5.00;;;;;;;1.47;100.00;97415.63;109630;1250;67907;-69
2023/11/26 10:02:15;;;;;;;6.10;5.10;;;;;;;1.49;100.00;97414.92;109621;1250;72489;-75
2023/11/26 10:04:47;;;;;;;6.00;5.40;;;;;;;1.47;100.00;97410.49;109603;1250;60327;-73
2023/11/26 10:07:14;;;;;;;4.70;4.30;;;;;;;1.42;100.00;97411.05;109669;1251;60123;-72
2023/11/26 10:09:42;;;;;;;5.20;4.70;;;;;;;1.38;100.00;97412.10;109628;1250;75478;-74
2023/11/26 10:12:09;;;;;;;5.40;5.00;;;;;;;1.37;100.00;97414.32;109655;1251;66728;-79
2023/11/26 10:14:35;;;;;;;6.70;5.10;;;;;;;1.36;100.00;97421.54;109588;1251;71535;-78
2023/11/26 10:17:10;;;;;;;5.50;4.90;;;;;;;1.34;100.00;97423.13;109589;1251;59777;-65
2023/11/26 10:19:37;;;;;;;5.20;4.80;;;;;;;1.31;100.00;97423.30;109622;1251;59909;-68
2023/11/26 10:22:03;;;;;;;6.40;5.80;;;;;;;1.25;100.00;97422.00;109670;1250;75161;-66
2023/11/26 10:24:30;;;;;;;4.00;3.70;;;;;;;1.17;100.00;97424.77;109629;1250;66641;-69
2023/11/26 10:26:59;;;;;;;3.30;3.00;;;;;;;1.10;100.00;97425.00;109542;1251;73075;-76
2023/11/26 10:29:29;;;;;;;2.30;2.10;;;;;;;1.05;100.00;97426.95;109488;1250;60076;-69
2023/11/26 10:32:06;;;;;;;1.50;1.40;;;;;;;0.98;100.00;97428.70;109633;1251;60023;-69
2023/11/26 10:34:34;;;;;;;1.60;1.50;;;;;;;0.95;100.00;97432.66;109601;1250;75192;-70
2023/11/26 10:37:20;;;;;;;2.20;1.80;;;;;;;0.92;100.00;97437.85;109595;1250;67831;-70
2023/11/26 10:39:52;;;;;;;1.80;1.70;;;;;;;0.89;100.00;97436.63;109558;1250;71363;-66
2023/11/26 10:42:19;;;;;;;1.80;1.70;;;;;;;0.86;100.00;97437.79;109632;1250;59837;-66
2023/11/26 10:44:51;;;;;;;2.20;2.00;;;;;;;0.88;100.00;97434.85;109528;1251;60162;-71
2023/11/26 10:47:20;;;;;;;1.60;1.50;;;;;;;0.88;100.00;97443.20;109548;1251;75271;-69
2023/11/26 10:49:51;;;;;;;1.80;1.70;;;;;;;0.86;100.00;97443.98;109500;1253;68267;-66
2023/11/26 10:52:24;;;;;;;2.30;1.90;;;;;;;0.85;100.00;97442.64;109519;1251;70420;-68
2023/11/26 10:55:13;;;;;;;2.30;1.80;;;;;;;0.85;100.00;97443.02;109503;1251;60864;-68
2023/11/26 10:57:41;;;;;;;2.20;2.00;;;;;;;0.83;100.00;97443.05;109596;1250;59773;-68
2023/11/26 11:00:29;;;;;;;2.40;2.20;;;;;;;0.80;100.00;97441.45;109679;1250;75212;-68
2023/11/26 11:02:56;;;;;;;2.10;1.90;;;;;;;0.80;100.00;97432.77;109655;1250;67963;-68
2023/11/26 11:05:23;;;;;;;2.00;1.80;;;;;;;0.81;100.00;97430.86;109613;1250;72992;-69
2023/11/26 11:07:49;;;;;;;2.00;1.80;;;;;;;0.82;100.00;97436.02;109584;1250;59758;-69
2023/11/26 11:10:31;;;;;;;2.10;1.90;;;;;;;0.83;100.00;97439.04;109618;1251;59742;-70
2023/11/26 11:13:08;;;;;;;3.10;2.80;;;;;;;0.85;100.00;97434.31;109523;1251;75723;-69
2023/11/26 11:15:35;;;;;;;5.00;4.10;;;;;;;0.87;100.00;97435.42;109671;1250;67736;-70
2023/11/26 11:18:27;;;;;;;5.30;4.30;;;;;;;0.90;100.00;97431.13;109514;1251;72340;-69
2023/11/26 11:21:12;;;;;;;10.80;8.10;;;;;;;0.90;100.00;97430.63;109631;1250;59830;-70
2023/11/26 11:23:40;;;;;;;7.60;5.70;;;;;;;0.90;100.00;97436.02;109662;1250;59770;-76
2023/11/26 11:26:11;;;;;;;5.30;4.00;;;;;;;0.92;100.00;97434.94;109601;1250;75401;-76
2023/11/26 11:28:42;;;;;;;3.50;2.70;;;;;;;0.92;100.00;97432.96;109578;1250;67934;-76